Time;durP1;ratioP1;P1;durP2;ratioP2;P2;SDS_P1;SDS_P2;PMS_P1;PMS_P2;Temp;Humidity;BMP_temperature;BMP_pressure;BME280_temperature;BME280_humidity;BME280_pressure;Samples;Min_cycle;Max_cycle;Signal;HPM_P1;HPM_P2
2023/03/07 00:01:03;0.00;0.00;0.62;0.00;0.00;0.62;1.80;1.30;;;21.20;21.40;;;;;;2272582;61;20450;-58
2023/03/07 00:03:48;0.00;0.00;0.62;0.00;0.00;0.62;1.63;1.23;;;21.20;21.40;;;;;;2272517;61;20918;-60
2023/03/07 00:06:33;0.00;0.00;0.62;0.00;0.00;0.62;2.20;1.80;;;21.20;21.40;;;;;;2272268;61;20358;-55
2023/03/07 00:09:17;0.00;0.00;0.62;0.00;0.00;0.62;2.10;1.57;;;21.20;21.40;;;;;;2272346;61;20922;-52
2023/03/07 00:12:03;0.00;0.00;0.62;0.00;0.00;0.62;1.77;1.50;;;21.20;21.40;;;;;;2272098;61;20359;-60
2023/03/07 00:14:47;0.00;0.00;0.62;0.00;0.00;0.62;2.23;1.50;;;21.20;21.40;;;;;;2272831;61;20466;-52
2023/03/07 00:17:34;0.00;0.00;0.62;0.00;0.00;0.62;2.20;1.57;;;21.20;21.40;;;;;;2272793;61;20443;-57
2023/03/07 00:20:19;0.00;0.00;0.62;0.00;0.00;0.62;2.00;1.50;;;21.20;21.40;;;;;;2271778;61;20398;-55
2023/03/07 00:23:04;0.00;0.00;0.62;0.00;0.00;0.62;2.83;1.93;;;21.20;21.40;;;;;;2273058;61;20408;-57
2023/03/07 00:25:57;0.00;0.00;0.62;0.00;0.00;0.62;2.50;1.80;;;21.20;21.40;;;;;;2272292;61;20365;-62
2023/03/07 00:28:42;0.00;0.00;0.62;0.00;0.00;0.62;2.50;2.07;;;21.20;21.40;;;;;;2272536;60;20870;-61
2023/03/07 00:31:27;0.00;0.00;0.62;0.00;0.00;0.62;1.93;1.47;;;21.10;21.30;;;;;;2269656;61;20402;-62
2023/03/07 00:36:55;0.00;0.00;0.62;0.00;0.00;0.62;1.90;1.40;;;21.20;21.30;;;;;;2265985;61;20384;-61
2023/03/07 00:39:40;0.00;0.00;0.62;0.00;0.00;0.62;2.20;1.80;;;21.20;21.30;;;;;;2263600;61;20355;-66
2023/03/07 00:42:25;0.00;0.00;0.62;0.00;0.00;0.62;2.27;1.63;;;21.10;21.30;;;;;;2263835;61;20430;-62
2023/03/07 00:45:12;0.00;0.00;0.62;0.00;0.00;0.62;2.13;1.80;;;21.10;21.30;;;;;;2268519;61;20453;-65
2023/03/07 00:47:57;0.00;0.00;0.62;0.00;0.00;0.62;1.93;1.50;;;21.10;21.30;;;;;;2268265;61;20367;-60
2023/03/07 00:50:41;0.00;0.00;0.62;0.00;0.00;0.62;2.07;1.60;;;21.10;21.30;;;;;;2267747;61;20473;-61
2023/03/07 00:53:28;0.00;0.00;0.62;0.00;0.00;0.62;2.40;1.93;;;21.10;21.30;;;;;;2268414;61;20403;-61
2023/03/07 00:56:16;0.00;0.00;0.62;0.00;0.00;0.62;2.47;1.90;;;21.10;21.20;;;;;;2268057;61;20411;-60
2023/03/07 00:59:02;0.00;0.00;0.62;0.00;0.00;0.62;2.20;1.73;;;21.10;21.20;;;;;;2265080;61;20853;-61
2023/03/07 01:01:47;0.00;0.00;0.62;0.00;0.00;0.62;2.43;1.77;;;21.10;21.30;;;;;;2265044;61;20398;-58
2023/03/07 01:04:32;0.00;0.00;0.62;0.00;0.00;0.62;2.07;1.63;;;21.10;21.30;;;;;;2264259;61;20382;-60
2023/03/07 01:07:17;0.00;0.00;0.62;0.00;0.00;0.62;2.30;1.77;;;21.10;21.30;;;;;;2268349;61;20493;-59
2023/03/07 01:10:04;0.00;0.00;0.62;0.00;0.00;0.62;2.20;1.60;;;21.00;21.20;;;;;;2264600;61;20805;-60
2023/03/07 01:12:49;0.00;0.00;0.62;0.00;0.00;0.62;2.20;1.67;;;21.00;21.20;;;;;;2268082;61;20928;-64
2023/03/07 01:15:35;0.00;0.00;0.62;0.00;0.00;0.62;2.00;1.60;;;21.10;21.30;;;;;;2265293;61;21266;-60
2023/03/07 01:18:21;0.00;0.00;0.62;0.00;0.00;0.62;1.93;1.60;;;21.00;21.20;;;;;;2265005;61;20417;-60
2023/03/07 01:21:13;0.00;0.00;0.62;0.00;0.00;0.62;2.13;1.67;;;21.00;21.20;;;;;;2264931;61;20352;-61
2023/03/07 01:23:58;0.00;0.00;0.62;0.00;0.00;0.62;1.83;1.40;;;21.00;21.20;;;;;;2265033;61;20460;-59
2023/03/07 01:26:45;0.00;0.00;0.62;0.00;0.00;0.62;2.20;1.70;;;21.00;21.20;;;;;;2264542;61;20406;-65
2023/03/07 01:29:30;0.00;0.00;0.62;0.00;0.00;0.62;2.10;1.73;;;21.00;21.20;;;;;;2267902;61;20418;-58
2023/03/07 01:32:14;0.00;0.00;0.62;0.00;0.00;0.62;2.10;1.33;;;21.00;21.20;;;;;;2265345;61;20347;-62
2023/03/07 01:35:00;0.00;0.00;0.62;0.00;0.00;0.62;2.30;1.53;;;21.00;21.20;;;;;;2264711;61;20378;-61
2023/03/07 01:37:48;0.00;0.00;0.62;0.00;0.00;0.62;2.10;1.73;;;21.00;21.20;;;;;;2265178;61;20455;-58
2023/03/07 01:40:33;0.00;0.00;0.62;0.00;0.00;0.62;1.90;1.50;;;21.00;21.20;;;;;;2264224;61;20390;-62
2023/03/07 01:43:26;0.00;0.00;0.62;0.00;0.00;0.62;1.80;1.40;;;21.00;21.20;;;;;;2265079;61;20387;-62
2023/03/07 01:46:42;0.00;0.00;0.62;0.00;0.00;0.62;2.10;1.30;;;21.00;21.20;;;;;;2265136;61;20408;-57
2023/03/07 01:49:31;0.00;0.00;0.62;0.00;0.00;0.62;1.90;1.50;;;21.00;21.20;;;;;;2264187;61;20958;-59
2023/03/07 01:52:24;0.00;0.00;0.62;0.00;0.00;0.62;2.03;1.60;;;21.00;21.20;;;;;;2265110;61;20360;-60
2023/03/07 01:55:16;0.00;0.00;0.62;0.00;0.00;0.62;1.93;1.57;;;21.00;21.20;;;;;;2264791;61;20390;-59
2023/03/07 01:58:07;0.00;0.00;0.62;0.00;0.00;0.62;3.23;1.80;;;20.90;21.20;;;;;;2264913;61;20364;-60
2023/03/07 02:00:54;0.00;0.00;0.62;0.00;0.00;0.62;1.97;1.50;;;20.90;21.20;;;;;;2264834;61;20351;-57
2023/03/07 02:03:48;0.00;0.00;0.62;0.00;0.00;0.62;2.10;1.60;;;20.90;21.20;;;;;;2264400;61;20812;-60
2023/03/07 02:06:37;0.00;0.00;0.62;0.00;0.00;0.62;1.83;1.50;;;20.90;21.20;;;;;;2265290;61;20358;-63
2023/03/07 02:09:24;0.00;0.00;0.62;0.00;0.00;0.62;2.20;1.70;;;20.90;21.10;;;;;;2264430;61;20921;-63
2023/03/07 02:12:09;0.00;0.00;0.62;0.00;0.00;0.62;1.90;1.60;;;20.90;21.20;;;;;;2265044;61;20317;-62
2023/03/07 02:14:55;0.00;0.00;0.62;0.00;0.00;0.62;2.37;1.60;;;21.00;21.20;;;;;;2265036;61;20468;-64
2023/03/07 02:17:43;0.00;0.00;0.62;0.00;0.00;0.62;1.90;1.30;;;21.00;21.10;;;;;;2264562;61;20761;-68
2023/03/07 02:20:39;0.00;0.00;0.62;0.00;0.00;0.62;1.70;1.30;;;20.90;21.10;;;;;;2264667;61;20367;-63
2023/03/07 02:23:35;0.00;0.00;0.62;0.00;0.00;0.62;1.73;1.50;;;20.90;21.10;;;;;;2268563;61;20496;-64
2023/03/07 02:26:28;0.00;0.00;0.62;0.00;0.00;0.62;1.80;1.20;;;20.90;21.10;;;;;;2267707;61;20375;-63
2023/03/07 02:29:15;0.00;0.00;0.62;0.00;0.00;0.62;1.80;1.33;;;20.90;21.10;;;;;;2264841;61;20356;-64
2023/03/07 02:32:03;0.00;0.00;0.62;0.00;0.00;0.62;2.70;1.37;;;20.90;21.10;;;;;;2268288;61;20933;-64
2023/03/07 02:34:48;0.00;0.00;0.62;0.00;0.00;0.62;1.93;1.30;;;20.90;21.10;;;;;;2267938;61;20880;-63
2023/03/07 02:37:40;0.00;0.00;0.62;0.00;0.00;0.62;1.60;1.20;;;20.90;21.10;;;;;;2265033;61;20366;-63
2023/03/07 02:40:28;0.00;0.00;0.62;0.00;0.00;0.62;1.90;1.30;;;20.90;21.10;;;;;;2267079;61;20382;-64
2023/03/07 02:43:15;0.00;0.00;0.62;0.00;0.00;0.62;1.70;1.30;;;20.90;21.10;;;;;;2264878;61;20375;-66
2023/03/07 02:46:01;0.00;0.00;0.62;0.00;0.00;0.62;1.83;1.63;;;20.90;21.20;;;;;;2264894;61;20402;-63
2023/03/07 02:48:46;0.00;0.00;0.62;0.00;0.00;0.62;1.70;1.20;;;20.80;21.10;;;;;;2264332;61;20394;-63
2023/03/07 02:51:31;0.00;0.00;0.62;0.00;0.00;0.62;1.57;1.23;;;20.80;21.10;;;;;;2268285;61;20382;-63
2023/03/07 02:54:16;0.00;0.00;0.62;0.00;0.00;0.62;1.80;1.47;;;20.80;21.10;;;;;;2265176;61;20374;-64
2023/03/07 02:57:01;0.00;0.00;0.62;0.00;0.00;0.62;2.27;1.40;;;20.90;21.10;;;;;;2265667;61;20941;-64
2023/03/07 02:59:46;0.00;0.00;0.62;0.00;0.00;0.62;1.70;1.40;;;20.80;21.10;;;;;;2268366;61;20343;-62
2023/03/07 03:02:33;0.00;0.00;0.62;0.00;0.00;0.62;1.53;1.10;;;20.80;21.10;;;;;;2268187;61;20363;-64
2023/03/07 03:05:18;0.00;0.00;0.62;0.00;0.00;0.62;1.80;1.43;;;20.80;21.10;;;;;;2268822;61;20364;-63
2023/03/07 03:08:03;0.00;0.00;0.62;0.00;0.00;0.62;1.80;1.30;;;20.80;21.10;;;;;;2268412;61;20865;-63
2023/03/07 03:10:52;0.00;0.00;0.62;0.00;0.00;0.62;1.73;1.30;;;20.80;21.10;;;;;;2267732;61;20279;-66
2023/03/07 03:13:37;0.00;0.00;0.62;0.00;0.00;0.62;1.60;1.20;;;20.80;21.00;;;;;;2265556;61;20817;-69
2023/03/07 03:16:22;0.00;0.00;0.62;0.00;0.00;0.62;1.87;1.23;;;20.90;21.00;;;;;;2265200;61;20895;-64
2023/03/07 03:19:08;0.00;0.00;0.62;0.00;0.00;0.62;1.57;1.30;;;20.80;21.00;;;;;;2268296;61;20362;-64
2023/03/07 03:21:53;0.00;0.00;0.62;0.00;0.00;0.62;1.70;1.27;;;20.80;21.00;;;;;;2268861;61;20719;-66
2023/03/07 03:24:39;0.00;0.00;0.62;0.00;0.00;0.62;1.50;1.07;;;20.80;21.00;;;;;;2267882;61;20437;-62
2023/03/07 03:27:24;0.00;0.00;0.62;0.00;0.00;0.62;1.83;1.10;;;20.80;21.00;;;;;;2265526;61;20362;-66
2023/03/07 03:30:12;0.00;0.00;0.62;0.00;0.00;0.62;1.83;1.30;;;20.80;21.00;;;;;;2265322;61;20386;-62
2023/03/07 03:32:58;0.00;0.00;0.62;0.00;0.00;0.62;1.67;1.10;;;20.80;21.00;;;;;;2262050;61;20364;-62
2023/03/07 03:35:46;0.00;0.00;0.62;0.00;0.00;0.62;1.50;0.97;;;20.80;21.00;;;;;;2265508;61;20916;-62
2023/03/07 03:38:32;0.00;0.00;0.62;0.00;0.00;0.62;1.90;1.30;;;20.80;21.00;;;;;;2265132;61;20359;-63
2023/03/07 03:41:17;0.00;0.00;0.62;0.00;0.00;0.62;1.60;1.10;;;20.80;21.10;;;;;;2265057;61;21024;-64
2023/03/07 03:44:03;0.00;0.00;0.62;0.00;0.00;0.62;1.40;1.07;;;20.70;21.00;;;;;;2265331;61;20437;-63
2023/03/07 03:46:49;0.00;0.00;0.62;0.00;0.00;0.62;1.57;1.27;;;20.70;21.00;;;;;;2261785;61;20425;-64
2023/03/07 03:49:36;0.00;0.00;0.62;0.00;0.00;0.62;1.67;1.07;;;20.70;21.00;;;;;;2265030;61;20483;-62
2023/03/07 03:52:22;0.00;0.00;0.62;0.00;0.00;0.62;1.53;1.20;;;20.70;21.00;;;;;;2265532;61;20393;-64
2023/03/07 03:55:08;0.00;0.00;0.62;0.00;0.00;0.62;1.60;1.20;;;20.70;21.00;;;;;;2264603;61;20409;-64
2023/03/07 03:57:57;0.00;0.00;0.62;0.00;0.00;0.62;1.60;1.00;;;20.70;21.00;;;;;;1676387;74;20495;-64
2023/03/07 04:00:43;0.00;0.00;0.62;0.00;0.00;0.62;1.63;1.13;;;20.70;21.00;;;;;;2272210;60;20768;-65
2023/03/07 04:03:28;0.00;0.00;0.62;0.00;0.00;0.62;1.70;1.10;;;20.70;21.00;;;;;;2272307;60;20931;-64
2023/03/07 04:06:17;0.00;0.00;0.62;0.00;0.00;0.62;1.80;1.30;;;20.70;21.60;;;;;;2267683;61;20570;-64
2023/03/07 04:09:04;0.00;0.00;0.62;0.00;0.00;0.62;1.83;1.30;;;20.70;21.10;;;;;;2266125;61;20391;-65
2023/03/07 04:11:49;0.00;0.00;0.62;0.00;0.00;0.62;1.50;1.10;;;20.70;21.10;;;;;;2266962;61;20537;-68
2023/03/07 04:14:35;0.00;0.00;0.62;0.00;0.00;0.62;1.80;1.05;;;20.70;21.10;;;;;;2266923;61;20768;-64
2023/03/07 04:17:20;0.00;0.00;0.62;0.00;0.00;0.62;1.60;1.20;;;20.60;21.10;;;;;;2266634;61;20263;-64
2023/03/07 04:20:10;0.00;0.00;0.62;0.00;0.00;0.62;1.50;1.00;;;20.70;21.10;;;;;;2266804;61;20965;-66
2023/03/07 04:22:55;0.00;0.00;0.62;0.00;0.00;0.62;1.80;1.30;;;20.70;21.10;;;;;;2266862;61;20899;-64
2023/03/07 04:25:46;0.00;0.00;0.62;0.00;0.00;0.62;1.73;1.43;;;20.70;21.10;;;;;;2267114;61;20927;-64
2023/03/07 04:28:52;0.00;0.00;0.62;0.00;0.00;0.62;1.50;1.00;;;20.70;21.10;;;;;;2267666;61;20438;-64
2023/03/07 04:31:50;0.00;0.00;0.62;0.00;0.00;0.62;1.70;1.10;;;20.70;21.10;;;;;;2266421;61;20946;-64
2023/03/07 04:34:35;0.00;0.00;0.62;0.00;0.00;0.62;1.40;0.90;;;20.60;21.00;;;;;;2267180;61;20416;-64
2023/03/07 04:37:20;0.00;0.00;0.62;0.00;0.00;0.62;1.50;1.10;;;20.60;21.00;;;;;;2266969;61;20406;-62
2023/03/07 04:40:07;0.00;0.00;0.62;0.00;0.00;0.62;1.50;1.00;;;20.60;21.00;;;;;;2266330;61;20359;-63
2023/03/07 04:42:52;0.00;0.00;0.62;0.00;0.00;0.62;1.70;1.07;;;20.60;21.00;;;;;;2267859;61;20962;-63
2023/03/07 04:45:37;0.00;0.00;0.62;0.00;0.00;0.62;1.70;1.10;;;20.60;21.10;;;;;;2266549;61;20370;-63
2023/03/07 04:48:23;0.00;0.00;0.62;0.00;0.00;0.62;1.60;1.00;;;20.60;21.10;;;;;;2267307;61;20359;-63
2023/03/07 04:51:09;0.00;0.00;0.62;0.00;0.00;0.62;1.50;0.90;;;20.60;21.10;;;;;;2266958;61;20395;-63
2023/03/07 04:53:54;0.00;0.00;0.62;0.00;0.00;0.62;1.67;1.00;;;20.60;21.10;;;;;;2266255;61;20468;-62
2023/03/07 04:56:39;0.00;0.00;0.62;0.00;0.00;0.62;1.47;0.90;;;20.60;21.10;;;;;;2267331;61;20399;-64
2023/03/07 04:59:24;0.00;0.00;0.62;0.00;0.00;0.62;1.40;0.97;;;20.60;21.10;;;;;;2266927;61;20911;-62
2023/03/07 05:02:11;0.00;0.00;0.62;0.00;0.00;0.62;1.70;1.00;;;20.60;21.20;;;;;;2266600;61;20355;-62
2023/03/07 05:04:57;0.00;0.00;0.62;0.00;0.00;0.62;1.50;0.90;;;20.60;21.20;;;;;;2264006;61;20442;-62
2023/03/07 05:07:43;0.00;0.00;0.62;0.00;0.00;0.62;1.40;0.90;;;20.60;21.20;;;;;;2265702;61;20361;-62
2023/03/07 05:10:28;0.00;0.00;0.62;0.00;0.00;0.62;1.80;1.00;;;20.60;21.20;;;;;;2263885;61;20363;-63
2023/03/07 05:13:14;0.00;0.00;0.62;0.00;0.00;0.62;1.70;0.80;;;20.60;21.20;;;;;;2264262;61;20797;-63
2023/03/07 05:15:59;0.00;0.00;0.62;0.00;0.00;0.62;1.50;0.90;;;20.60;21.20;;;;;;2263581;61;20411;-63
2023/03/07 05:18:45;0.00;0.00;0.62;0.00;0.00;0.62;1.30;0.80;;;20.60;21.70;;;;;;2264946;61;20441;-63
2023/03/07 05:21:32;0.00;0.00;0.62;0.00;0.00;0.62;1.33;0.80;;;20.60;21.20;;;;;;2264380;61;20411;-64
2023/03/07 05:24:19;0.00;0.00;0.62;0.00;0.00;0.62;1.40;0.90;;;20.60;21.20;;;;;;2264239;61;20437;-62
2023/03/07 05:27:04;0.00;0.00;0.62;0.00;0.00;0.62;1.60;1.10;;;20.60;21.20;;;;;;2264477;61;20428;-63
2023/03/07 05:29:49;0.00;0.00;0.62;0.00;0.00;0.62;1.40;0.77;;;20.60;21.20;;;;;;2263836;61;20494;-61
2023/03/07 05:32:34;0.00;0.00;0.62;0.00;0.00;0.62;1.50;0.90;;;20.50;21.20;;;;;;2264583;61;20355;-59
2023/03/07 05:35:23;0.00;0.00;0.62;0.00;0.00;0.62;1.40;0.90;;;20.50;21.10;;;;;;2264125;61;20460;-60
2023/03/07 05:38:10;0.00;0.00;0.62;0.00;0.00;0.62;1.40;1.00;;;20.50;21.10;;;;;;2263352;61;20412;-59
2023/03/07 05:40:55;0.00;0.00;0.62;0.00;0.00;0.62;1.40;0.80;;;20.50;21.10;;;;;;2263781;61;20375;-64
2023/03/07 05:43:40;0.00;0.00;0.62;0.00;0.00;0.62;1.30;0.80;;;20.50;21.10;;;;;;2263748;61;20446;-62
2023/03/07 05:46:25;0.00;0.00;0.62;0.00;0.00;0.62;1.30;0.80;;;20.50;21.10;;;;;;2263781;61;20526;-56
2023/03/07 05:49:10;0.00;0.00;0.62;0.00;0.00;0.62;1.40;0.90;;;20.50;21.10;;;;;;2263758;61;20360;-61
2023/03/07 05:51:55;0.00;0.00;0.62;0.00;0.00;0.62;1.30;0.80;;;20.50;21.10;;;;;;2264331;61;20344;-61
2023/03/07 05:54:41;0.00;0.00;0.62;0.00;0.00;0.62;1.70;0.90;;;20.50;21.20;;;;;;2263722;61;20406;-60
2023/03/07 05:57:26;0.00;0.00;0.62;0.00;0.00;0.62;1.60;0.90;;;20.50;21.10;;;;;;2260973;61;20399;-59
2023/03/07 06:00:14;0.00;0.00;0.62;0.00;0.00;0.62;1.47;0.87;;;20.50;21.10;;;;;;2263160;61;20399;-63
2023/03/07 06:03:04;0.00;0.00;0.62;0.00;0.00;0.62;1.30;0.70;;;20.50;21.10;;;;;;2263939;61;20511;-64
2023/03/07 06:05:51;0.00;0.00;0.62;0.00;0.00;0.62;1.97;0.90;;;20.50;21.10;;;;;;2264255;61;20364;-61
2023/03/07 06:08:36;0.00;0.00;0.62;0.00;0.00;0.62;1.50;1.00;;;20.50;21.10;;;;;;2264045;61;20361;-65
2023/03/07 06:11:22;0.00;0.00;0.62;0.00;0.00;0.62;1.47;0.90;;;20.50;21.20;;;;;;2263938;61;20356;-64
2023/03/07 06:14:07;0.00;0.00;0.62;0.00;0.00;0.62;1.53;0.80;;;20.50;21.10;;;;;;2263782;61;20924;-62
2023/03/07 06:16:52;0.00;0.00;0.62;0.00;0.00;0.62;1.70;1.07;;;20.50;21.10;;;;;;2264591;61;20388;-63
2023/03/07 06:19:37;0.00;0.00;0.62;0.00;0.00;0.62;1.47;0.83;;;20.50;21.20;;;;;;2263624;61;20367;-63
2023/03/07 06:22:21;0.00;0.00;0.62;0.00;0.00;0.62;1.30;0.80;;;20.50;21.10;;;;;;2264204;61;20364;-61
2023/03/07 06:25:08;0.00;0.00;0.62;0.00;0.00;0.62;1.37;0.90;;;20.50;21.10;;;;;;2264414;61;20394;-63
2023/03/07 06:27:59;0.00;0.00;0.62;0.00;0.00;0.62;1.50;0.80;;;20.50;21.10;;;;;;2264647;61;20364;-65
2023/03/07 06:30:44;0.00;0.00;0.62;0.00;0.00;0.62;1.50;1.13;;;20.50;21.20;;;;;;2263708;61;20376;-62
2023/03/07 06:33:29;0.00;0.00;0.62;0.00;0.00;0.62;2.30;1.20;;;20.50;21.10;;;;;;2264355;61;20379;-63
2023/03/07 06:36:17;0.00;0.00;0.62;0.00;0.00;0.62;1.70;1.00;;;20.50;21.10;;;;;;2263785;61;21133;-62
2023/03/07 06:39:06;0.00;0.00;0.62;0.00;0.00;0.62;1.60;0.97;;;20.50;21.10;;;;;;2263781;61;20410;-62
2023/03/07 06:41:52;0.00;0.00;0.62;0.00;0.00;0.62;1.40;0.80;;;20.50;21.10;;;;;;2264438;61;20404;-63
2023/03/07 06:44:20;0.00;0.00;0.62;0.00;0.00;0.62;2.07;1.07;;;20.50;21.10;;;;;;2263656;61;20377;-63
2023/03/07 06:47:05;0.00;0.00;0.62;0.00;0.00;0.62;2.63;1.70;;;20.50;21.10;;;;;;2264357;61;20889;-63
2023/03/07 06:49:51;0.00;0.00;0.62;0.00;0.00;0.62;1.60;0.97;;;20.50;21.10;;;;;;2264253;61;20364;-63
2023/03/07 06:52:35;0.00;0.00;0.62;0.00;0.00;0.62;1.50;0.90;;;20.40;21.00;;;;;;2263644;61;20359;-65
2023/03/07 06:55:20;0.00;0.00;0.62;0.00;0.00;0.62;2.33;1.57;;;20.40;21.10;;;;;;2264181;61;20364;-63
2023/03/07 06:58:06;0.00;0.00;0.62;0.00;0.00;0.62;1.50;1.00;;;20.40;21.10;;;;;;2264317;61;20426;-62
2023/03/07 07:00:53;0.00;0.00;0.62;0.00;0.00;0.62;2.00;1.30;;;20.40;21.00;;;;;;2263848;61;20768;-65
2023/03/07 07:03:38;0.00;0.00;0.62;0.00;0.00;0.62;1.87;1.10;;;20.40;21.00;;;;;;2264182;61;20380;-63
2023/03/07 07:06:22;0.00;0.00;0.62;0.00;0.00;0.62;2.10;1.30;;;20.40;21.10;;;;;;2263541;61;20436;-66
2023/03/07 07:09:11;0.00;0.00;0.62;0.00;0.00;0.62;1.70;1.13;;;20.40;21.10;;;;;;2263600;61;20360;-61
2023/03/07 07:11:56;0.00;0.00;0.62;0.00;0.00;0.62;2.40;1.70;;;20.40;21.10;;;;;;2264024;61;20372;-64
2023/03/07 07:14:41;0.00;0.00;0.62;0.00;0.00;0.62;2.37;1.50;;;20.40;21.10;;;;;;2263287;61;20395;-63
2023/03/07 07:17:28;0.00;0.00;0.62;0.00;0.00;0.62;2.47;1.20;;;20.40;21.10;;;;;;2263885;61;20400;-62
2023/03/07 07:20:13;0.00;0.00;0.62;0.00;0.00;0.62;2.67;1.40;;;20.40;21.10;;;;;;2263918;61;20441;-62
2023/03/07 07:22:59;0.00;0.00;0.62;0.00;0.00;0.62;1.80;1.20;;;20.40;21.10;;;;;;2263772;61;20387;-64
2023/03/07 07:25:44;0.00;0.00;0.62;0.00;0.00;0.62;1.57;1.10;;;20.40;21.10;;;;;;2264274;61;20503;-66
2023/03/07 07:28:28;0.00;0.00;0.62;0.00;0.00;0.62;1.70;1.17;;;20.40;21.10;;;;;;2264204;61;20839;-63
2023/03/07 07:31:13;0.00;0.00;0.62;0.00;0.00;0.62;2.40;1.40;;;20.40;21.10;;;;;;2263749;61;20359;-63
2023/03/07 07:34:00;0.00;0.00;0.62;0.00;0.00;0.62;2.03;1.30;;;20.40;21.10;;;;;;2263879;61;20391;-65
2023/03/07 07:36:47;0.00;0.00;0.62;0.00;0.00;0.62;2.17;1.57;;;20.40;21.10;;;;;;2263122;61;20553;-63
2023/03/07 07:39:32;0.00;0.00;0.62;0.00;0.00;0.62;2.53;1.60;;;20.40;21.10;;;;;;2263579;61;20789;-64
2023/03/07 07:42:17;0.00;0.00;0.62;0.00;0.00;0.62;2.10;1.50;;;20.40;21.10;;;;;;2263449;61;20360;-59
2023/03/07 07:45:14;0.00;0.00;0.62;0.00;0.00;0.62;4.43;1.73;;;20.40;21.10;;;;;;2263367;61;20430;-58
2023/03/07 07:47:59;0.00;0.00;0.62;0.00;0.00;0.62;3.87;1.87;;;20.40;21.10;;;;;;2263916;61;20364;-60
2023/03/07 07:50:46;0.00;0.00;0.62;0.00;0.00;0.62;2.47;1.60;;;20.40;21.10;;;;;;2262614;61;20418;-58
2023/03/07 07:53:31;0.00;0.00;0.62;0.00;0.00;0.62;2.53;1.80;;;20.40;21.10;;;;;;2263877;61;20449;-61
2023/03/07 07:56:17;0.00;0.00;0.62;0.00;0.00;0.62;3.10;2.30;;;20.40;21.10;;;;;;2263946;61;20427;-61
2023/03/07 07:59:02;0.00;0.00;0.62;0.00;0.00;0.62;2.60;1.87;;;20.40;21.10;;;;;;2262853;61;20367;-61
2023/03/07 08:01:47;0.00;0.00;0.62;0.00;0.00;0.62;2.90;1.97;;;20.40;21.10;;;;;;2263759;61;20829;-60
2023/03/07 08:04:32;0.00;0.00;0.62;0.00;0.00;0.62;2.57;1.83;;;20.40;21.10;;;;;;2263819;61;20846;-63
2023/03/07 08:07:18;0.00;0.00;0.62;0.00;0.00;0.62;2.83;2.07;;;20.40;21.20;;;;;;2263776;61;20358;-60
2023/03/07 08:10:03;0.00;0.00;0.62;0.00;0.00;0.62;6.13;2.23;;;20.40;21.10;;;;;;2263688;61;20379;-58
2023/03/07 08:12:50;0.00;0.00;0.62;0.00;0.00;0.62;3.07;2.40;;;20.40;21.10;;;;;;2263783;61;20363;-59
2023/03/07 08:15:35;0.00;0.00;0.62;0.00;0.00;0.62;3.60;2.30;;;20.40;21.20;;;;;;2264086;61;20775;-62
2023/03/07 08:18:21;0.00;0.00;0.62;0.00;0.00;0.62;3.97;2.78;;;20.40;21.10;;;;;;2264368;61;21135;-66
2023/03/07 08:21:07;0.00;0.00;0.62;0.00;0.00;0.62;3.07;2.40;;;20.40;21.20;;;;;;2263509;61;20235;-63
2023/03/07 08:23:54;0.00;0.00;0.62;0.00;0.00;0.62;4.53;2.40;;;20.40;21.10;;;;;;2263819;61;20423;-63
2023/03/07 08:26:38;0.00;0.00;0.62;0.00;0.00;0.62;2.70;2.03;;;20.40;21.10;;;;;;2264260;61;20581;-63
2023/03/07 08:29:23;0.00;0.00;0.62;0.00;0.00;0.62;4.03;2.70;;;20.40;21.00;;;;;;2263676;61;20363;-64
2023/03/07 08:32:08;0.00;0.00;0.62;0.00;0.00;0.62;4.47;2.70;;;20.40;21.00;;;;;;2264466;61;20363;-62
2023/03/07 08:34:53;0.00;0.00;0.62;0.00;0.00;0.62;3.10;2.77;;;20.40;21.10;;;;;;2263887;61;20419;-63
2023/03/07 08:37:38;0.00;0.00;0.62;0.00;0.00;0.62;4.40;2.43;;;20.40;21.10;;;;;;2264241;61;20426;-62
2023/03/07 08:40:26;0.00;0.00;0.62;0.00;0.00;0.62;3.60;2.77;;;20.40;21.10;;;;;;2263884;61;20372;-63
2023/03/07 08:43:11;0.00;0.00;0.62;0.00;0.00;0.62;4.03;2.83;;;20.40;21.10;;;;;;2263699;61;20379;-62
2023/03/07 08:45:56;0.00;0.00;0.62;0.00;0.00;0.62;6.67;2.70;;;20.40;21.10;;;;;;2264959;61;20783;-63
2023/03/07 08:48:40;0.00;0.00;0.62;0.00;0.00;0.62;4.50;2.50;;;20.40;21.10;;;;;;2264951;61;20391;-63
2023/03/07 08:51:25;0.00;0.00;0.62;0.00;0.00;0.62;4.37;2.53;;;20.40;21.10;;;;;;2264862;61;20372;-59
2023/03/07 08:54:10;0.00;0.00;0.62;0.00;0.00;0.62;4.83;2.80;;;20.40;21.10;;;;;;2264893;61;20451;-63
2023/03/07 08:56:56;0.00;0.00;0.62;0.00;0.00;0.62;3.57;2.70;;;20.40;21.10;;;;;;2264585;61;20395;-63
2023/03/07 08:59:40;0.00;0.00;0.62;0.00;0.00;0.62;5.63;2.60;;;20.40;21.10;;;;;;2264588;61;20406;-63
2023/03/07 09:02:25;0.00;0.00;0.62;0.00;0.00;0.62;3.07;2.40;;;20.40;21.10;;;;;;2265020;61;20399;-63
2023/03/07 09:05:10;0.00;0.00;0.62;0.00;0.00;0.62;3.17;2.87;;;20.40;21.10;;;;;;2264036;61;20380;-63
2023/03/07 09:07:55;0.00;0.00;0.62;0.00;0.00;0.62;3.80;2.30;;;20.40;21.10;;;;;;2264925;61;20400;-62
2023/03/07 09:10:39;0.00;0.00;0.62;0.00;0.00;0.62;2.97;2.50;;;20.40;21.10;;;;;;2264593;61;20375;-64
2023/03/07 09:13:25;0.00;0.00;0.62;0.00;0.00;0.62;3.60;2.70;;;20.40;21.10;;;;;;2263850;61;20861;-64
2023/03/07 09:16:10;0.00;0.00;0.62;0.00;0.00;0.62;3.33;2.37;;;20.40;21.10;;;;;;2264408;61;20476;-62
2023/03/07 09:18:55;0.00;0.00;0.62;0.00;0.00;0.62;4.70;2.93;;;20.40;21.10;;;;;;2264325;61;20387;-63
2023/03/07 09:21:39;0.00;0.00;0.62;0.00;0.00;0.62;3.43;2.70;;;20.40;21.10;;;;;;2264585;61;20365;-62
2023/03/07 09:24:24;0.00;0.00;0.62;0.00;0.00;0.62;4.70;2.80;;;20.40;21.10;;;;;;2264733;61;20391;-60
2023/03/07 09:27:10;0.00;0.00;0.62;0.00;0.00;0.62;4.13;2.87;;;20.30;21.10;;;;;;2263959;61;20770;-60
2023/03/07 09:29:56;0.00;0.00;0.62;0.00;0.00;0.62;4.30;3.20;;;20.40;21.10;;;;;;2264492;61;20396;-61
2023/03/07 09:32:41;0.00;0.00;0.62;0.00;0.00;0.62;4.23;2.77;;;20.30;21.10;;;;;;2265092;61;20918;-65
2023/03/07 09:35:26;0.00;0.00;0.62;0.00;0.00;0.62;5.60;3.17;;;20.40;21.20;;;;;;2264254;61;20360;-65
2023/03/07 09:38:11;0.00;0.00;0.62;0.00;0.00;0.62;4.73;2.53;;;20.30;21.10;;;;;;2264559;61;20379;-63
2023/03/07 09:41:04;0.00;0.00;0.62;0.00;0.00;0.62;3.60;3.13;;;20.30;21.00;;;;;;2264133;61;20456;-63
2023/03/07 09:43:58;0.00;0.00;0.62;0.00;0.00;0.62;3.60;3.10;;;20.30;21.10;;;;;;2264299;61;20920;-67
2023/03/07 09:47:38;0.00;0.00;0.62;0.00;0.00;0.62;3.83;2.97;;;20.30;21.10;;;;;;2264210;61;20391;-61
2023/03/07 09:50:29;0.00;0.00;0.62;0.00;0.00;0.62;3.73;2.70;;;20.30;21.10;;;;;;2264029;61;20372;-63
2023/03/07 09:53:23;0.00;0.00;0.62;0.00;0.00;0.62;4.10;3.30;;;20.30;21.10;;;;;;2264665;61;20372;-63
2023/03/07 09:56:15;0.00;0.00;0.62;0.00;0.00;0.62;3.83;3.23;;;20.30;21.10;;;;;;2263929;61;20925;-63
2023/03/07 09:59:09;0.00;0.00;0.62;0.00;0.00;0.62;5.50;2.87;;;20.30;21.10;;;;;;2264438;61;20411;-63
2023/03/07 10:02:04;0.00;0.00;0.62;0.00;0.00;0.62;4.77;2.90;;;20.30;21.10;;;;;;2264783;61;20364;-64
2023/03/07 10:05:00;0.00;0.00;0.62;0.00;0.00;0.62;3.70;2.30;;;20.30;21.10;;;;;;2264065;61;20764;-68
2023/03/07 10:07:45;0.00;0.00;0.62;0.00;0.00;0.62;3.60;2.70;;;20.30;21.10;;;;;;2264553;61;20399;-61
2023/03/07 10:10:37;0.00;0.00;0.62;0.00;0.00;0.62;3.27;2.57;;;20.30;21.10;;;;;;2264073;61;20767;-63
2023/03/07 10:13:38;0.00;0.00;0.62;0.00;0.00;0.62;3.30;2.27;;;20.30;21.10;;;;;;2264180;61;20384;-62
2023/03/07 10:16:30;0.00;0.00;0.62;0.00;0.00;0.62;4.43;3.00;;;20.30;21.20;;;;;;2264595;61;20391;-63
2023/03/07 10:19:23;0.00;0.00;0.62;0.00;0.00;0.62;2.90;2.20;;;20.30;21.20;;;;;;2263753;61;20661;-61
2023/03/07 10:22:19;0.00;0.00;0.62;0.00;0.00;0.62;3.20;2.43;;;20.30;21.20;;;;;;2265533;61;20356;-61
2023/03/07 10:25:19;0.00;0.00;0.62;0.00;0.00;0.62;4.57;3.13;;;20.30;21.20;;;;;;2265081;61;20384;-62
2023/03/07 10:28:20;0.00;0.00;0.62;0.00;0.00;0.62;3.60;2.00;;;20.30;21.20;;;;;;2265292;61;20775;-61
2023/03/07 10:31:16;0.00;0.00;0.62;0.00;0.00;0.62;3.30;2.20;;;20.30;21.70;;;;;;2265402;61;20368;-60
2023/03/07 10:34:13;0.00;0.00;0.62;0.00;0.00;0.62;2.97;2.30;;;20.30;21.20;;;;;;2264383;61;20380;-64
2023/03/07 10:37:06;0.00;0.00;0.62;0.00;0.00;0.62;3.67;2.40;;;20.30;21.20;;;;;;2265298;61;20605;-60
2023/03/07 10:39:55;0.00;0.00;0.62;0.00;0.00;0.62;2.70;2.10;;;20.30;21.20;;;;;;2265036;61;20455;-62
2023/03/07 10:42:41;0.00;0.00;0.62;0.00;0.00;0.62;2.80;1.90;;;20.30;21.20;;;;;;2264991;61;20394;-58
2023/03/07 10:45:29;0.00;0.00;0.62;0.00;0.00;0.62;3.00;2.00;;;20.30;21.20;;;;;;2265549;61;20788;-61
2023/03/07 10:48:18;0.00;0.00;0.62;0.00;0.00;0.62;3.80;2.40;;;20.30;21.30;;;;;;2264803;61;20364;-59
2023/03/07 10:51:14;0.00;0.00;0.62;0.00;0.00;0.62;2.90;2.00;;;20.30;21.20;;;;;;2265373;61;20356;-60
2023/03/07 10:54:00;0.00;0.00;0.62;0.00;0.00;0.62;2.93;2.10;;;20.30;21.20;;;;;;2265268;61;20426;-60
2023/03/07 10:57:08;0.00;0.00;0.62;0.00;0.00;0.62;2.33;1.93;;;20.30;21.20;;;;;;2264601;61;20380;-61
2023/03/07 10:59:54;0.00;0.00;0.62;0.00;0.00;0.62;3.37;2.20;;;20.30;21.20;;;;;;2264754;61;20368;-60
2023/03/07 11:02:46;0.00;0.00;0.62;0.00;0.00;0.62;3.40;1.90;;;20.30;21.20;;;;;;2264917;61;20394;-60